createdAt,value
2022-10-10T00:01:52.727Z,16.33
2022-10-10T00:04:20.493Z,16.00
2022-10-10T00:06:48.204Z,20.00
2022-10-10T00:09:16.721Z,22.00
2022-10-10T00:11:44.412Z,31.00
2022-10-10T00:14:13.135Z,47.50
2022-10-10T00:16:42.771Z,76.33
2022-10-10T00:19:12.482Z,65.67
2022-10-10T00:21:42.232Z,54.67
2022-10-10T00:24:11.687Z,62.00
2022-10-10T00:26:40.324Z,36.33
2022-10-10T00:29:07.996Z,19.00
2022-10-10T00:31:36.601Z,16.00
2022-10-10T00:34:05.432Z,15.00
2022-10-10T00:36:33.890Z,15.00
2022-10-10T00:39:02.355Z,15.00
2022-10-10T00:41:30.846Z,11.00
2022-10-10T00:44:12.213Z,19.00
2022-10-10T00:46:41.210Z,14.67
2022-10-10T00:49:26.706Z,12.50
2022-10-10T00:51:59.578Z,19.00
2022-10-10T00:54:30.024Z,17.33
2022-10-10T00:57:11.362Z,18.50
2022-10-10T00:59:42.960Z,28.00
2022-10-10T01:02:10.637Z,24.00
2022-10-10T01:04:45.796Z,22.00
2022-10-10T01:07:28.876Z,20.00
2022-10-10T01:10:04.592Z,19.67
2022-10-10T01:12:52.053Z,15.33
2022-10-10T01:16:07.390Z,12.67
2022-10-10T01:19:23.252Z,14.67
2022-10-10T01:22:34.531Z,12.67
2022-10-10T01:26:02.419Z,21.67
2022-10-10T01:28:47.666Z,25.00
2022-10-10T01:31:22.644Z,19.00
2022-10-10T01:34:20.318Z,12.67
2022-10-10T01:37:40.755Z,16.50
2022-10-10T01:40:42.318Z,15.50
2022-10-10T01:43:12.444Z,14.00
2022-10-10T01:45:53.595Z,15.67
2022-10-10T01:48:31.422Z,14.00
2022-10-10T01:51:29.471Z,15.00
2022-10-10T01:54:25.712Z,16.33
2022-10-10T01:57:20.400Z,17.00
2022-10-10T02:00:19.443Z,39.67
2022-10-10T02:03:10.246Z,40.33
2022-10-10T02:06:04.637Z,44.00
2022-10-10T02:08:42.888Z,57.00
2022-10-10T02:11:13.508Z,35.50
2022-10-10T02:14:19.323Z,32.00
2022-10-10T02:16:52.244Z,28.00
2022-10-10T02:19:23.688Z,35.00
2022-10-10T02:21:54.067Z,49.00
2022-10-10T02:24:24.882Z,27.50
2022-10-10T02:27:09.752Z,39.67
2022-10-10T02:29:44.202Z,30.00
2022-10-10T02:32:40.643Z,44.67
2022-10-10T02:35:23.829Z,29.50
2022-10-10T02:37:55.550Z,32.00
2022-10-10T02:40:30.077Z,31.00
2022-10-10T02:43:03.569Z,38.50
2022-10-10T02:45:33.463Z,29.00
2022-10-10T02:48:03.127Z,26.00
2022-10-10T02:50:32.895Z,26.50
2022-10-10T02:53:01.662Z,28.00
2022-10-10T02:55:30.313Z,18.00
2022-10-10T02:57:58.897Z,21.33
2022-10-10T03:00:26.816Z,11.00
2022-10-10T03:02:55.427Z,22.33
2022-10-10T03:05:24.006Z,15.00
2022-10-10T03:07:52.633Z,18.00
2022-10-10T03:10:21.280Z,29.50
2022-10-10T03:12:49.381Z,29.50
2022-10-10T03:15:17.478Z,26.00
2022-10-10T03:17:45.432Z,22.50
2022-10-10T03:20:14.134Z,21.67
2022-10-10T03:22:41.848Z,23.50
2022-10-10T03:25:10.548Z,24.33
2022-10-10T03:27:39.184Z,25.67
2022-10-10T03:30:07.974Z,17.00
2022-10-10T03:32:35.648Z,22.50
2022-10-10T03:35:04.729Z,20.00
2022-10-10T03:37:32.428Z,22.00
2022-10-10T03:40:01.153Z,24.33
2022-10-10T03:42:29.698Z,14.67
2022-10-10T03:44:58.171Z,16.67
2022-10-10T03:47:26.683Z,19.67
2022-10-10T03:49:58.349Z,17.67
2022-10-10T03:52:26.845Z,16.00
2022-10-10T03:54:54.571Z,18.00
2022-10-10T03:57:22.454Z,22.00
2022-10-10T03:59:50.959Z,16.33
2022-10-10T04:02:19.519Z,15.67
2022-10-10T04:04:47.303Z,17.00
2022-10-10T04:07:17.094Z,13.00
2022-10-10T04:09:45.584Z,12.67
2022-10-10T04:12:15.176Z,17.40
2022-10-10T04:14:44.787Z,21.20
2022-10-10T04:17:12.508Z,16.00
2022-10-10T04:19:41.128Z,13.00
2022-10-10T04:22:11.332Z,16.00
2022-10-10T04:24:39.193Z,23.50
2022-10-10T04:27:06.915Z,18.50
2022-10-10T04:29:35.504Z,22.00
2022-10-10T04:32:04.220Z,20.67
2022-10-10T04:34:32.941Z,22.67
2022-10-10T04:37:00.697Z,20.50
2022-10-10T04:39:29.260Z,20.33
2022-10-10T04:41:57.167Z,26.50
2022-10-10T04:44:24.916Z,26.00
2022-10-10T04:46:53.498Z,19.00
2022-10-10T04:49:21.433Z,33.00
2022-10-10T04:51:50.843Z,31.67
2022-10-10T04:54:18.546Z,26.00
2022-10-10T04:56:47.169Z,18.67
2022-10-10T04:59:15.767Z,22.00
2022-10-10T05:01:44.492Z,22.33
2022-10-10T05:04:14.357Z,26.33
2022-10-10T05:06:44.792Z,121.25
2022-10-10T05:09:14.343Z,86.00
2022-10-10T05:11:43.919Z,96.33
2022-10-10T05:14:13.540Z,84.00
2022-10-10T05:16:43.012Z,64.33
2022-10-10T05:19:12.532Z,69.00
2022-10-10T05:21:42.041Z,74.67
2022-10-10T05:24:11.511Z,63.67
2022-10-10T05:26:43.268Z,44.50
2022-10-10T05:29:12.921Z,58.33
2022-10-10T05:31:41.577Z,37.00
2022-10-10T05:34:15.194Z,22.33
2022-10-10T05:36:43.653Z,16.00
2022-10-10T05:39:12.144Z,17.00
2022-10-10T05:41:39.844Z,25.50
2022-10-10T05:44:10.290Z,39.33
2022-10-10T05:46:39.694Z,56.33
2022-10-10T05:49:09.207Z,38.33
2022-10-10T05:51:37.860Z,28.33
2022-10-10T05:54:05.713Z,16.00
2022-10-10T05:56:33.450Z,20.00
2022-10-10T05:59:02.860Z,18.67
2022-10-10T06:01:31.529Z,22.33
2022-10-10T06:04:00.160Z,19.00
2022-10-10T06:06:27.885Z,14.50
2022-10-10T06:08:56.735Z,19.67
2022-10-10T06:11:26.228Z,22.33
2022-10-10T06:13:54.490Z,14.50
2022-10-10T06:16:28.148Z,20.00
2022-10-10T06:18:57.338Z,25.00
2022-10-10T06:21:26.149Z,26.00
2022-10-10T06:23:54.802Z,15.33
2022-10-10T06:26:22.585Z,16.00
2022-10-10T06:28:50.986Z,14.00
2022-10-10T06:31:18.986Z,13.00
2022-10-10T06:33:48.254Z,29.00
2022-10-10T06:36:17.705Z,18.33
2022-10-10T06:38:46.768Z,18.50
2022-10-10T06:41:15.449Z,14.33
2022-10-10T06:43:44.348Z,10.00
2022-10-10T06:46:13.494Z,18.00
2022-10-10T06:48:41.921Z,13.00
2022-10-10T06:51:16.323Z,15.33
2022-10-10T06:53:46.118Z,10.00
2022-10-10T06:56:24.914Z,13.33
2022-10-10T06:58:56.438Z,12.00
2022-10-10T07:01:27.040Z,10.80
2022-10-10T07:03:55.685Z,9.33
2022-10-10T07:06:23.697Z,11.00
2022-10-10T07:08:51.394Z,14.00
2022-10-10T07:11:19.144Z,12.00
2022-10-10T07:13:46.817Z,5.00
2022-10-10T07:16:14.449Z,6.00
2022-10-10T07:18:42.087Z,4.50
2022-10-10T07:21:12.399Z,5.00
2022-10-10T07:23:42.033Z,7.00
2022-10-10T07:26:21.015Z,7.00
2022-10-10T07:28:50.117Z,5.00
2022-10-10T07:31:17.803Z,8.50
2022-10-10T07:33:50.806Z,8.00
2022-10-10T07:36:19.885Z,7.00
2022-10-10T07:38:52.248Z,6.00
2022-10-10T07:41:21.625Z,5.50
2022-10-10T07:43:54.379Z,6.00
2022-10-10T07:46:22.188Z,8.00
2022-10-10T07:48:51.788Z,11.20
2022-10-10T07:51:19.481Z,5.00
2022-10-10T07:53:47.208Z,7.00
2022-10-10T07:56:14.872Z,5.50
2022-10-10T07:58:42.543Z,6.00
2022-10-10T08:01:13.134Z,6.00
2022-10-10T08:03:41.344Z,6.50
2022-10-10T08:06:14.931Z,6.00
2022-10-10T08:08:50.746Z,8.50
2022-10-10T08:11:21.901Z,4.00
2022-10-10T08:13:50.517Z,4.00
2022-10-10T08:16:20.587Z,3.00
2022-10-10T08:18:48.314Z,5.00
2022-10-10T08:21:16.971Z,7.00
2022-10-10T08:23:44.942Z,6.50
2022-10-10T08:26:17.183Z,5.00
2022-10-10T08:28:45.990Z,4.00
2022-10-10T08:31:21.475Z,6.50
2022-10-10T08:33:51.906Z,10.67
2022-10-10T08:36:24.138Z,5.00
2022-10-10T08:38:57.475Z,7.00
2022-10-10T08:42:01.330Z,10.33
2022-10-10T08:44:48.542Z,10.20
2022-10-10T08:47:37.054Z,11.00
2022-10-10T08:50:24.494Z,10.33
2022-10-10T08:53:08.981Z,5.00
2022-10-10T08:55:46.477Z,7.14
2022-10-10T08:58:48.247Z,4.00
2022-10-10T09:01:28.011Z,4.00
2022-10-10T09:04:01.328Z,5.00
2022-10-10T09:07:01.289Z,5.00
2022-10-10T09:10:13.233Z,10.50
2022-10-10T09:13:11.102Z,10.50
2022-10-10T09:15:58.465Z,3.00
2022-10-10T09:19:44.887Z,3.00
2022-10-10T09:22:25.861Z,16.00
2022-10-10T09:25:19.416Z,26.00
2022-10-10T09:28:25.230Z,3.00
2022-10-10T09:30:58.173Z,5.00
2022-10-10T09:33:46.563Z,11.20
2022-10-10T09:36:23.767Z,6.00
2022-10-10T09:38:59.587Z,4.00
2022-10-10T09:41:43.871Z,3.00
2022-10-10T09:44:14.985Z,3.50
2022-10-10T09:46:42.862Z,5.00
2022-10-10T09:49:17.312Z,4.00
2022-10-10T09:51:48.983Z,4.00
2022-10-10T09:54:20.200Z,3.00
2022-10-10T09:56:57.631Z,4.00
2022-10-10T09:59:46.698Z,5.00
2022-10-10T10:02:27.156Z,3.00
2022-10-10T10:04:56.132Z,4.50
2022-10-10T10:07:36.478Z,6.00
2022-10-10T10:10:36.181Z,11.00
2022-10-10T10:13:04.003Z,6.00
2022-10-10T10:15:33.320Z,19.67
2022-10-10T10:18:30.996Z,4.00
2022-10-10T10:21:07.413Z,1.00
2022-10-10T10:23:56.855Z,4.00
2022-10-10T10:26:47.836Z,9.00
2022-10-10T10:29:33.983Z,6.00
2022-10-10T10:32:28.694Z,3.00
2022-10-10T10:35:12.880Z,6.00
2022-10-10T10:38:06.880Z,4.00
2022-10-10T10:40:50.059Z,5.50
2022-10-10T10:43:40.282Z,6.50
2022-10-10T10:46:57.473Z,7.50
2022-10-10T10:49:52.870Z,8.00
2022-10-10T10:53:03.356Z,6.80
2022-10-10T10:55:39.299Z,7.00
2022-10-10T11:02:10.435Z,4.20
2022-10-10T11:05:18.787Z,4.67
2022-10-10T11:08:26.816Z,12.67
2022-10-10T11:11:28.902Z,8.20
2022-10-10T11:14:36.948Z,6.00
2022-10-10T11:17:44.004Z,8.20
2022-10-10T11:20:43.782Z,6.20
2022-10-10T11:23:25.893Z,2.00
2022-10-10T11:26:08.489Z,6.60
2022-10-10T11:29:03.388Z,13.67
2022-10-10T11:32:01.005Z,7.00
2022-10-10T11:34:42.644Z,6.00
2022-10-10T11:37:29.395Z,4.00
2022-10-10T11:40:06.225Z,3.33
2022-10-10T11:43:08.420Z,5.00
2022-10-10T11:45:53.667Z,3.33
2022-10-10T11:49:12.033Z,4.00
2022-10-10T11:52:09.435Z,2.00
2022-10-10T11:55:40.931Z,35.00
2022-10-10T11:58:09.280Z,3.33
2022-10-10T12:00:50.578Z,5.60
2022-10-10T12:03:20.066Z,3.00
2022-10-10T12:06:28.138Z,3.20
2022-10-10T12:09:27.488Z,3.00
2022-10-10T12:12:08.215Z,4.67
2022-10-10T12:14:44.868Z,4.00
2022-10-10T12:17:30.113Z,7.20
2022-10-10T12:20:30.696Z,4.00
2022-10-10T12:23:30.529Z,3.33
2022-10-10T12:25:59.940Z,5.00
2022-10-10T12:28:38.147Z,2.00
2022-10-10T12:31:06.556Z,6.00
2022-10-10T12:33:34.929Z,3.00
2022-10-10T12:36:19.555Z,9.40
2022-10-10T12:39:08.276Z,2.80
2022-10-10T12:41:57.222Z,3.67
2022-10-10T12:44:42.961Z,3.00
2022-10-10T12:47:14.989Z,3.00
2022-10-10T12:50:18.547Z,3.00
2022-10-10T12:52:57.342Z,3.00
2022-10-10T12:55:45.199Z,4.00
2022-10-10T12:58:37.471Z,3.33
2022-10-10T13:01:33.224Z,2.00
2022-10-10T13:04:02.134Z,18.50
2022-10-10T13:06:59.196Z,4.00
2022-10-10T13:09:35.582Z,3.00
2022-10-10T13:12:22.190Z,3.60
2022-10-10T13:14:50.667Z,2.67
2022-10-10T13:17:42.334Z,12.00
2022-10-10T13:20:39.809Z,16.50
2022-10-10T13:23:14.577Z,9.00
2022-10-10T13:25:46.921Z,4.00
2022-10-10T13:28:22.165Z,5.40
2022-10-10T13:30:52.638Z,8.67
2022-10-10T13:33:28.982Z,7.80
2022-10-10T13:36:16.164Z,2.00
2022-10-10T13:38:47.177Z,22.50
2022-10-10T13:41:19.254Z,20.67
2022-10-10T13:43:47.700Z,3.00
2022-10-10T13:46:33.522Z,4.00
2022-10-10T13:49:02.157Z,1.00
2022-10-10T13:51:47.469Z,3.80
2022-10-10T13:54:43.542Z,13.33
2022-10-10T13:57:27.937Z,10.00
2022-10-10T14:00:17.543Z,18.50
2022-10-10T14:02:47.289Z,6.00
2022-10-10T14:05:30.901Z,4.60
2022-10-10T14:08:01.476Z,14.00
2022-10-10T14:10:37.210Z,63.00
2022-10-10T14:13:06.065Z,34.67
2022-10-10T14:15:41.709Z,16.20
2022-10-10T14:18:24.780Z,31.33
2022-10-10T14:20:54.043Z,11.00
2022-10-10T14:23:23.488Z,23.00
2022-10-10T14:25:53.416Z,38.75
2022-10-10T14:28:27.812Z,17.00
2022-10-10T14:30:57.315Z,46.00
2022-10-10T14:33:27.797Z,42.67
2022-10-10T14:35:58.723Z,52.67
2022-10-10T14:38:28.368Z,70.25
2022-10-10T14:40:56.571Z,58.50
2022-10-10T14:43:25.340Z,53.33
2022-10-10T14:45:54.659Z,46.00
2022-10-10T14:48:23.342Z,26.33
2022-10-10T14:50:51.962Z,21.00
2022-10-10T14:53:21.323Z,33.00
2022-10-10T14:55:55.320Z,45.33
2022-10-10T14:58:24.809Z,24.33
2022-10-10T15:00:56.984Z,15.33
2022-10-10T15:03:25.490Z,8.33
2022-10-10T15:05:53.229Z,6.00
2022-10-10T15:08:21.609Z,8.33
2022-10-10T15:10:50.061Z,9.00
2022-10-10T15:13:17.768Z,9.00
2022-10-10T15:15:48.285Z,11.67
2022-10-10T15:18:49.253Z,10.67
2022-10-10T15:21:13.024Z,15.33
2022-10-10T15:23:41.025Z,17.50
2022-10-10T15:26:09.556Z,15.50
2022-10-10T15:28:40.782Z,23.00
2022-10-10T15:31:09.464Z,23.00
2022-10-10T15:33:37.127Z,8.00
2022-10-10T15:36:10.179Z,20.33
2022-10-10T15:38:40.580Z,23.00
2022-10-10T15:41:10.840Z,21.00
2022-10-10T15:43:57.253Z,20.50
2022-10-10T15:46:28.970Z,30.33
2022-10-10T15:49:03.803Z,28.33
2022-10-10T15:51:32.402Z,26.67
2022-10-10T15:54:02.796Z,29.00
2022-10-10T15:56:31.805Z,24.33
2022-10-10T15:59:03.892Z,31.67
2022-10-10T16:01:32.807Z,33.33
2022-10-10T16:04:04.437Z,43.67
2022-10-10T16:06:34.402Z,56.33
2022-10-10T16:09:23.839Z,55.33
2022-10-10T16:11:52.991Z,42.00
2022-10-10T16:14:22.390Z,47.67
2022-10-10T16:16:52.036Z,138.33
2022-10-10T16:19:20.519Z,88.00
2022-10-10T16:21:50.536Z,59.00
2022-10-10T16:24:20.109Z,59.25
2022-10-10T16:26:50.809Z,56.75
2022-10-10T16:29:20.769Z,55.67
2022-10-10T16:31:49.344Z,63.00
2022-10-10T16:34:19.714Z,77.67
2022-10-10T16:36:49.176Z,78.50
2022-10-10T16:39:18.673Z,76.50
2022-10-10T16:41:49.129Z,59.67
2022-10-10T16:44:18.895Z,68.67
2022-10-10T16:46:47.496Z,67.67
2022-10-10T16:49:17.198Z,65.25
2022-10-10T16:51:46.585Z,63.25
2022-10-10T16:54:15.249Z,54.00
2022-10-10T16:56:44.736Z,64.67
2022-10-10T16:59:14.227Z,69.67
2022-10-10T17:01:42.001Z,72.00
2022-10-10T17:04:11.505Z,71.50
2022-10-10T17:06:41.064Z,77.25
2022-10-10T17:09:11.648Z,87.75
2022-10-10T17:11:41.241Z,87.50
2022-10-10T17:14:12.034Z,100.50
2022-10-10T17:19:33.000Z,116.25
2022-10-10T17:22:02.545Z,117.00
2022-10-10T17:24:32.079Z,115.33
2022-10-10T17:27:02.505Z,101.50
2022-10-10T17:29:32.956Z,100.00
2022-10-10T17:32:06.611Z,103.25
2022-10-10T17:34:36.552Z,96.00
2022-10-10T17:37:05.417Z,90.00
2022-10-10T17:39:35.005Z,94.67
2022-10-10T17:42:05.288Z,67.33
2022-10-10T17:44:39.108Z,95.00
2022-10-10T17:47:10.026Z,98.50
2022-10-10T17:49:41.306Z,110.33
2022-10-10T17:52:09.032Z,120.50
2022-10-10T17:54:36.760Z,108.50
2022-10-10T17:57:06.307Z,118.33
2022-10-10T17:59:34.122Z,112.50
2022-10-10T18:02:01.926Z,107.00
2022-10-10T18:04:31.579Z,119.25
2022-10-10T18:07:01.224Z,135.00
2022-10-10T18:09:30.809Z,152.00
2022-10-10T18:12:01.028Z,154.67
2022-10-10T18:14:30.727Z,154.33
2022-10-10T18:17:02.212Z,159.13
2022-10-10T18:19:34.129Z,178.63
2022-10-10T18:22:04.188Z,130.33
2022-10-10T18:24:34.214Z,145.33
2022-10-10T18:27:03.910Z,136.00
2022-10-10T18:29:31.713Z,132.50
2022-10-10T18:31:59.806Z,123.00
2022-10-10T18:34:29.440Z,123.67
2022-10-10T18:36:59.100Z,114.00
2022-10-10T18:39:32.224Z,109.00
2022-10-10T18:42:04.216Z,104.75
2022-10-10T18:44:32.056Z,109.50
2022-10-10T18:47:01.622Z,136.67
2022-10-10T18:49:29.902Z,127.00
2022-10-10T18:51:57.854Z,117.00
2022-10-10T18:54:30.349Z,107.50
2022-10-10T18:57:00.782Z,105.50
2022-10-10T18:59:32.156Z,93.00
2022-10-10T19:01:59.965Z,87.50
2022-10-10T19:04:28.675Z,78.00
2022-10-10T19:06:58.399Z,83.33
2022-10-10T19:09:27.989Z,79.33
2022-10-10T19:11:57.519Z,83.33
2022-10-10T19:14:27.168Z,99.33
2022-10-10T19:16:56.728Z,77.00
2022-10-10T19:19:24.584Z,79.00
2022-10-10T19:21:54.161Z,80.50
2022-10-10T19:24:23.724Z,78.33
2022-10-10T19:26:56.924Z,80.00
2022-10-10T19:29:28.884Z,87.00
2022-10-10T19:31:56.930Z,84.00
2022-10-10T19:34:26.501Z,84.00
2022-10-10T19:36:56.622Z,74.67
2022-10-10T19:39:26.208Z,78.67
2022-10-10T19:41:55.741Z,82.25
2022-10-10T19:44:25.259Z,78.50
2022-10-10T19:46:55.227Z,78.50
2022-10-10T19:49:24.743Z,80.33
2022-10-10T19:51:54.508Z,83.00
2022-10-10T19:54:24.190Z,78.67
2022-10-10T19:56:53.721Z,77.00
2022-10-10T19:59:23.143Z,63.33
2022-10-10T20:01:52.758Z,56.00
2022-10-10T20:04:21.629Z,50.50
2022-10-10T20:06:51.038Z,56.67
2022-10-10T20:09:20.638Z,82.67
2022-10-10T20:11:50.177Z,83.00
2022-10-10T20:14:19.600Z,78.50
2022-10-10T20:16:49.076Z,84.00
2022-10-10T20:19:17.705Z,69.33
2022-10-10T20:21:47.169Z,76.25
2022-10-10T20:24:16.897Z,65.33
2022-10-10T20:26:46.379Z,63.00
2022-10-10T20:29:15.995Z,59.33
2022-10-10T20:31:44.641Z,49.67
2022-10-10T20:34:14.123Z,56.67
2022-10-10T20:36:43.563Z,57.00
2022-10-10T20:39:14.581Z,54.67
2022-10-10T20:41:44.078Z,53.33
2022-10-10T20:44:15.096Z,42.33
2022-10-10T20:46:46.293Z,56.33
2022-10-10T20:49:21.886Z,48.33
2022-10-10T20:51:51.985Z,22.00
2022-10-10T20:54:23.616Z,30.33
2022-10-10T20:56:53.104Z,29.67
2022-10-10T20:59:24.669Z,36.00
2022-10-10T21:01:53.379Z,28.33
2022-10-10T21:04:22.806Z,33.00
2022-10-10T21:06:52.181Z,28.33
2022-10-10T21:09:20.964Z,37.33
2022-10-10T21:11:51.608Z,35.00
2022-10-10T21:14:20.524Z,36.00
2022-10-10T21:16:50.732Z,31.67
2022-10-10T21:19:20.586Z,38.25
2022-10-10T21:21:49.407Z,31.33
2022-10-10T21:24:17.988Z,33.00
2022-10-10T21:26:49.264Z,27.67
2022-10-10T21:29:18.473Z,32.67
2022-10-10T21:31:47.377Z,33.67
2022-10-10T21:34:19.510Z,33.00
2022-10-10T21:36:48.454Z,32.33
2022-10-10T21:39:17.393Z,26.00
2022-10-10T21:41:46.820Z,31.67
2022-10-10T21:44:16.355Z,28.00
2022-10-10T21:46:44.934Z,31.33
2022-10-10T21:49:14.474Z,36.33
2022-10-10T21:51:46.138Z,34.33
2022-10-10T21:54:15.896Z,30.00
2022-10-10T21:56:45.657Z,36.33
2022-10-10T21:59:15.095Z,33.33
2022-10-10T22:01:44.565Z,29.67
2022-10-10T22:04:13.951Z,41.67
2022-10-10T22:06:42.815Z,44.33
2022-10-10T22:09:12.250Z,40.00
2022-10-10T22:11:40.951Z,50.33
2022-10-10T22:14:10.395Z,40.67
2022-10-10T22:16:40.095Z,46.67
2022-10-10T22:19:08.806Z,41.33
2022-10-10T22:21:37.524Z,50.00
2022-10-10T22:24:09.094Z,43.67
2022-10-10T22:26:38.603Z,42.00
2022-10-10T22:29:07.257Z,40.67
2022-10-10T22:31:37.880Z,45.00
2022-10-10T22:34:08.032Z,39.67
2022-10-10T22:36:37.588Z,43.33
2022-10-10T22:39:07.419Z,50.67
2022-10-10T22:41:37.376Z,52.33
2022-10-10T22:44:06.190Z,35.67
2022-10-10T22:46:35.729Z,39.67
2022-10-10T22:49:04.761Z,35.33
2022-10-10T22:51:34.457Z,41.67
2022-10-10T22:54:03.123Z,39.00
2022-10-10T22:56:33.302Z,36.00
2022-10-10T22:59:01.860Z,40.67
2022-10-10T23:01:31.405Z,48.33
2022-10-10T23:04:03.542Z,38.67
2022-10-10T23:06:32.921Z,42.00
2022-10-10T23:09:02.284Z,38.25
2022-10-10T23:11:30.948Z,34.00
2022-10-10T23:13:59.538Z,34.67
2022-10-10T23:16:28.160Z,39.33
2022-10-10T23:18:57.032Z,36.00
2022-10-10T23:21:26.502Z,40.00
2022-10-10T23:23:55.469Z,37.33
2022-10-10T23:26:24.925Z,45.00
2022-10-10T23:28:54.448Z,39.33
2022-10-10T23:31:23.951Z,39.00
2022-10-10T23:33:52.525Z,51.00
2022-10-10T23:36:21.972Z,59.33
2022-10-10T23:38:51.491Z,58.33
2022-10-10T23:41:21.365Z,52.00
2022-10-10T23:43:50.009Z,47.33
2022-10-10T23:46:18.893Z,48.00
2022-10-10T23:48:47.479Z,38.67
2022-10-10T23:51:17.711Z,48.00
2022-10-10T23:53:47.141Z,40.00
2022-10-10T23:56:16.516Z,38.00
2022-10-10T23:58:45.152Z,36.00
